Time;durP1;ratioP1;P1;durP2;ratioP2;P2;SDS_P1;SDS_P2;PMS_P1;PMS_P2;Temp;Humidity;BMP_temperature;BMP_pressure;BME280_temperature;BME280_humidity;BME280_pressure;Samples;Min_cycle;Max_cycle;Signal;HPM_P1;HPM_P2
2022/04/21 00:00:22;;;;;;;7.93;4.28;;;;;;;;;;4938212;29;20087;-70
2022/04/21 00:02:51;;;;;;;5.47;4.43;;;;;;;;;;4937921;29;20051;-70
2022/04/21 00:05:20;;;;;;;8.77;6.03;;;;;;;;;;4937505;29;20117;-70
2022/04/21 00:07:49;;;;;;;10.23;5.20;;;;;;;;;;4937560;29;20048;-69
2022/04/21 00:10:20;;;;;;;6.57;4.75;;;;;;;;;;4937990;29;20044;-70
2022/04/21 00:12:50;;;;;;;6.80;4.50;;;;;;;;;;4937506;29;20058;-69
2022/04/21 00:15:19;;;;;;;5.97;5.32;;;;;;;;;;4937950;29;20043;-69
2022/04/21 00:17:47;;;;;;;6.50;4.95;;;;;;;;;;4937099;29;20067;-69
2022/04/21 00:20:16;;;;;;;6.75;5.85;;;;;;;;;;4938365;29;20123;-69
2022/04/21 00:25:32;;;;;;;7.88;4.35;;;;;;;;;;4937733;29;20051;-69
2022/04/21 00:28:02;;;;;;;10.43;5.82;;;;;;;;;;4937442;29;20075;-69
2022/04/21 00:30:31;;;;;;;5.65;4.30;;;;;;;;;;4937490;29;20474;-69
2022/04/21 00:33:01;;;;;;;7.07;4.60;;;;;;;;;;4939456;29;20598;-69
2022/04/21 00:35:30;;;;;;;11.13;6.32;;;;;;;;;;4941630;29;20055;-69
2022/04/21 00:38:01;;;;;;;4.97;4.38;;;;;;;;;;4941335;29;20050;-70
2022/04/21 00:40:32;;;;;;;13.90;5.85;;;;;;;;;;4941031;29;20572;-69
2022/04/21 00:43:02;;;;;;;7.32;5.18;;;;;;;;;;4941416;29;20079;-70
2022/04/21 00:45:32;;;;;;;6.90;5.13;;;;;;;;;;4940908;29;20075;-70
2022/04/21 00:48:02;;;;;;;8.57;5.60;;;;;;;;;;4941160;29;20130;-70
2022/04/21 00:50:35;;;;;;;8.23;4.97;;;;;;;;;;4939595;29;20054;-69
2022/04/21 00:53:04;;;;;;;8.73;6.68;;;;;;;;;;4941107;29;20040;-69
2022/04/21 00:55:32;;;;;;;6.35;5.50;;;;;;;;;;4940796;29;20044;-69
2022/04/21 00:58:03;;;;;;;10.20;5.53;;;;;;;;;;4941089;29;20050;-70
2022/04/21 01:00:33;;;;;;;7.95;6.57;;;;;;;;;;4940138;29;20084;-70
2022/04/21 01:03:03;;;;;;;8.80;5.72;;;;;;;;;;4940971;29;20165;-69
2022/04/21 01:05:33;;;;;;;8.85;5.80;;;;;;;;;;4939610;29;20063;-69
2022/04/21 01:08:05;;;;;;;7.05;5.93;;;;;;;;;;4940630;29;20517;-70
2022/04/21 01:10:37;;;;;;;13.60;5.88;;;;;;;;;;4940579;29;20134;-69
2022/04/21 01:13:07;;;;;;;8.68;5.53;;;;;;;;;;4940742;29;20051;-69
2022/04/21 01:15:37;;;;;;;8.13;5.95;;;;;;;;;;4940616;29;20059;-69
2022/04/21 01:18:07;;;;;;;8.10;5.85;;;;;;;;;;4940196;29;20167;-69
2022/04/21 01:20:35;;;;;;;12.13;6.43;;;;;;;;;;4940607;29;20060;-69
2022/04/21 01:23:05;;;;;;;8.30;6.07;;;;;;;;;;4940376;29;20070;-68
2022/04/21 01:25:39;;;;;;;16.02;6.80;;;;;;;;;;4940583;29;20122;-69
2022/04/21 01:28:10;;;;;;;13.38;6.95;;;;;;;;;;4940355;29;20060;-69
2022/04/21 01:30:40;;;;;;;10.63;6.85;;;;;;;;;;4940383;29;20551;-68
2022/04/21 01:33:10;;;;;;;12.45;6.13;;;;;;;;;;4940200;29;20396;-68
2022/04/21 01:35:40;;;;;;;7.55;6.75;;;;;;;;;;4940431;29;20139;-68
2022/04/21 01:41:09;;;;;;;9.85;6.15;;;;;;;;;;4939792;29;20419;-68
2022/04/21 01:43:38;;;;;;;8.55;6.88;;;;;;;;;;4941065;29;20111;-68
2022/04/21 01:46:06;;;;;;;6.82;6.22;;;;;;;;;;4938438;29;20411;-68
2022/04/21 01:48:35;;;;;;;8.70;6.43;;;;;;;;;;4940363;29;20435;-68
2022/04/21 01:51:04;;;;;;;11.85;7.40;;;;;;;;;;4939742;29;20048;-68
2022/04/21 01:53:33;;;;;;;6.97;6.22;;;;;;;;;;4940042;29;20051;-68
2022/04/21 01:56:04;;;;;;;9.07;6.68;;;;;;;;;;4940035;29;20044;-68
2022/04/21 01:58:34;;;;;;;8.73;7.03;;;;;;;;;;4939802;29;20059;-68
2022/04/21 02:01:04;;;;;;;7.97;7.18;;;;;;;;;;4939692;29;20075;-69
2022/04/21 02:03:33;;;;;;;9.50;7.00;;;;;;;;;;4940078;29;20075;-69
2022/04/21 02:06:04;;;;;;;7.75;6.53;;;;;;;;;;4939590;29;20052;-69
2022/04/21 02:08:33;;;;;;;8.32;6.68;;;;;;;;;;4940104;29;20054;-68
2022/04/21 02:11:03;;;;;;;7.78;6.75;;;;;;;;;;4940477;29;20048;-67
2022/04/21 02:13:33;;;;;;;9.68;7.05;;;;;;;;;;4939609;29;20055;-68
2022/04/21 02:16:03;;;;;;;9.70;6.57;;;;;;;;;;4939617;29;20054;-69
2022/04/21 02:18:34;;;;;;;9.20;6.70;;;;;;;;;;4939089;29;20052;-68
2022/04/21 02:21:03;;;;;;;12.05;7.20;;;;;;;;;;4939732;29;20055;-68
2022/04/21 02:23:33;;;;;;;8.02;6.95;;;;;;;;;;4939402;29;20071;-68
2022/04/21 02:26:02;;;;;;;9.23;7.78;;;;;;;;;;4939236;29;20491;-68
2022/04/21 02:28:31;;;;;;;11.88;7.03;;;;;;;;;;4938926;29;20522;-68
2022/04/21 02:31:00;;;;;;;9.00;7.55;;;;;;;;;;4938764;29;20444;-67
2022/04/21 02:33:29;;;;;;;8.52;7.38;;;;;;;;;;4938135;29;20058;-67
2022/04/21 02:35:58;;;;;;;9.55;6.97;;;;;;;;;;4938990;29;20052;-67
2022/04/21 02:38:27;;;;;;;8.55;7.63;;;;;;;;;;4939403;29;20059;-67
2022/04/21 02:40:56;;;;;;;15.63;7.72;;;;;;;;;;4938565;29;20111;-67
2022/04/21 02:43:25;;;;;;;10.65;7.90;;;;;;;;;;4939288;29;20059;-67
2022/04/21 02:45:53;;;;;;;9.23;7.55;;;;;;;;;;4938591;29;20074;-67
2022/04/21 02:48:22;;;;;;;8.75;7.80;;;;;;;;;;4939188;29;20091;-68
2022/04/21 02:50:51;;;;;;;8.15;7.38;;;;;;;;;;4938791;29;20416;-69
2022/04/21 02:57:19;;;;;;;9.70;6.82;;;;;;;;;;4939047;29;20119;-68
2022/04/21 02:59:00;;;;;;;7.93;7.13;;;;;;;;;;4939032;29;20098;-69
2022/04/21 03:01:28;;;;;;;10.38;8.25;;;;;;;;;;4937537;29;20056;-70
2022/04/21 03:03:57;;;;;;;13.25;8.45;;;;;;;;;;4938684;29;20044;-68
2022/04/21 03:06:26;;;;;;;10.55;7.97;;;;;;;;;;4938772;29;20052;-68
2022/04/21 03:08:56;;;;;;;10.75;7.65;;;;;;;;;;4938791;29;20114;-68
2022/04/21 03:11:27;;;;;;;9.75;8.20;;;;;;;;;;4939056;29;20446;-68
2022/04/21 03:13:56;;;;;;;10.48;7.78;;;;;;;;;;4938266;29;20036;-68
2022/04/21 03:16:26;;;;;;;10.30;7.80;;;;;;;;;;4938525;29;20451;-68
2022/04/21 03:18:55;;;;;;;11.40;7.68;;;;;;;;;;4938373;29;20409;-68
2022/04/21 03:24:21;;;;;;;10.25;8.48;;;;;;;;;;4938384;29;20079;-68
2022/04/21 03:26:53;;;;;;;11.63;8.95;;;;;;;;;;4938566;29;20047;-69
2022/04/21 03:29:23;;;;;;;11.60;8.32;;;;;;;;;;4938084;29;20047;-68
2022/04/21 03:31:52;;;;;;;11.70;7.00;;;;;;;;;;4937896;29;20488;-68
2022/04/21 03:34:21;;;;;;;8.68;7.85;;;;;;;;;;4938021;29;20083;-69
2022/04/21 03:36:51;;;;;;;8.57;7.45;;;;;;;;;;4938753;29;20054;-69
2022/04/21 03:39:22;;;;;;;8.20;7.38;;;;;;;;;;4937655;29;20075;-68
2022/04/21 03:41:55;;;;;;;8.75;7.88;;;;;;;;;;4938349;29;20051;-69
2022/04/21 03:44:24;;;;;;;8.43;7.50;;;;;;;;;;4938344;29;20078;-69
2022/04/21 03:46:58;;;;;;;7.97;7.28;;;;;;;;;;4937721;29;20500;-69
2022/04/21 03:49:29;;;;;;;11.57;7.68;;;;;;;;;;4938134;29;20056;-68
2022/04/21 03:52:00;;;;;;;10.60;8.00;;;;;;;;;;4938085;29;20055;-68
2022/04/21 03:54:30;;;;;;;10.65;7.72;;;;;;;;;;4937591;29;20507;-68
2022/04/21 03:56:59;;;;;;;11.88;8.38;;;;;;;;;;4937629;29;20055;-68
2022/04/21 03:59:30;;;;;;;8.55;7.75;;;;;;;;;;4937798;29;20094;-68
2022/04/21 04:02:04;;;;;;;9.70;8.25;;;;;;;;;;4937730;29;20072;-68
2022/04/21 04:04:34;;;;;;;;;;;;;;;;;;4938478;29;20051;-68
2022/04/21 04:12:40;;;;;;;8.93;7.30;;;;;;;;;;4931546;29;20060;-70
2022/04/21 04:15:10;;;;;;;7.57;6.82;;;;;;;;;;4927476;29;20135;-70
2022/04/21 04:17:38;;;;;;;9.13;8.20;;;;;;;;;;4926413;29;20075;-70
2022/04/21 04:20:08;;;;;;;8.10;7.30;;;;;;;;;;4928204;29;20492;-69
2022/04/21 04:22:40;;;;;;;9.05;7.53;;;;;;;;;;4924565;29;20048;-68
2022/04/21 04:25:10;;;;;;;17.27;7.18;;;;;;;;;;4928531;29;20051;-68
2022/04/21 04:27:38;;;;;;;6.32;5.70;;;;;;;;;;4928776;29;20047;-68
2022/04/21 04:30:07;;;;;;;6.95;6.35;;;;;;;;;;4928162;29;20037;-69
2022/04/21 04:32:36;;;;;;;7.28;6.60;;;;;;;;;;4927196;29;20072;-69
2022/04/21 04:35:07;;;;;;;7.55;6.68;;;;;;;;;;4926939;29;20055;-69
2022/04/21 04:37:36;;;;;;;10.23;7.30;;;;;;;;;;4930165;29;20534;-70
2022/04/21 04:40:08;;;;;;;8.85;7.10;;;;;;;;;;4925689;29;20064;-70
2022/04/21 04:42:37;;;;;;;8.90;6.63;;;;;;;;;;4930856;29;20106;-68
2022/04/21 04:47:54;;;;;;;7.53;6.32;;;;;;;;;;4927747;29;20063;-68
2022/04/21 04:50:23;;;;;;;7.70;7.00;;;;;;;;;;4926991;29;20102;-69
2022/04/21 04:52:58;;;;;;;7.43;6.68;;;;;;;;;;4918228;29;20079;-69
2022/04/21 04:55:30;;;;;;;8.68;6.93;;;;;;;;;;4937291;29;20109;-69
2022/04/21 04:57:58;;;;;;;10.20;7.18;;;;;;;;;;4936321;29;20116;-69
2022/04/21 05:00:28;;;;;;;7.75;6.93;;;;;;;;;;4932072;29;20040;-69
2022/04/21 05:03:02;;;;;;;13.00;8.23;;;;;;;;;;4930782;29;20044;-72
2022/04/21 05:05:35;;;;;;;11.73;7.10;;;;;;;;;;4927071;29;20040;-70
2022/04/21 05:08:10;;;;;;;9.32;6.90;;;;;;;;;;4926456;29;20829;-69
2022/04/21 05:10:53;;;;;;;7.30;6.50;;;;;;;;;;4937024;29;20043;-69
2022/04/21 05:13:31;;;;;;;9.40;8.20;;;;;;;;;;4924338;29;20594;-69
2022/04/21 05:16:14;;;;;;;8.60;7.80;;;;;;;;;;4923071;29;20122;-69
2022/04/21 05:18:52;;;;;;;10.75;6.97;;;;;;;;;;4938392;29;20146;-69
2022/04/21 05:21:24;;;;;;;8.70;6.85;;;;;;;;;;4940353;29;20059;-69
2022/04/21 05:23:58;;;;;;;8.80;7.50;;;;;;;;;;4940350;29;20043;-68
2022/04/21 05:26:47;;;;;;;8.20;6.50;;;;;;;;;;4940603;29;20062;-69
2022/04/21 05:32:05;;;;;;;7.63;6.90;;;;;;;;;;4937235;29;20063;-68
2022/04/21 05:34:37;;;;;;;7.43;6.63;;;;;;;;;;4923087;29;20076;-68
2022/04/21 05:37:11;;;;;;;12.77;7.32;;;;;;;;;;4929270;29;20126;-69
2022/04/21 05:39:45;;;;;;;7.07;6.22;;;;;;;;;;4934818;29;20063;-68
2022/04/21 05:42:24;;;;;;;7.25;6.55;;;;;;;;;;4934220;29;20059;-67
2022/04/21 05:44:55;;;;;;;9.43;7.10;;;;;;;;;;4934974;29;20088;-68
2022/04/21 05:47:26;;;;;;;9.13;8.23;;;;;;;;;;4933596;29;20056;-68
2022/04/21 05:49:57;;;;;;;9.52;8.60;;;;;;;;;;4930105;29;20090;-72
2022/04/21 05:52:30;;;;;;;8.10;7.30;;;;;;;;;;4916389;29;20060;-68
2022/04/21 05:55:00;;;;;;;8.10;7.30;;;;;;;;;;4917850;29;20082;-68
2022/04/21 05:57:38;;;;;;;8.55;6.82;;;;;;;;;;4917692;29;20052;-71
2022/04/21 06:00:08;;;;;;;10.10;7.28;;;;;;;;;;4917987;29;20048;-70
2022/04/21 06:02:37;;;;;;;12.23;7.68;;;;;;;;;;4926898;29;20055;-68
2022/04/21 06:05:08;;;;;;;7.85;7.10;;;;;;;;;;4917447;29;20423;-69
2022/04/21 06:07:39;;;;;;;11.57;8.20;;;;;;;;;;4917748;29;20064;-70
2022/04/21 06:10:08;;;;;;;9.52;7.32;;;;;;;;;;4916604;29;20058;-70
2022/04/21 06:12:38;;;;;;;13.25;8.13;;;;;;;;;;4924146;29;20131;-68
2022/04/21 06:15:09;;;;;;;10.30;8.00;;;;;;;;;;4930473;29;20495;-74
2022/04/21 06:17:38;;;;;;;12.52;7.53;;;;;;;;;;4924810;29;20055;-64
2022/04/21 06:20:14;;;;;;;9.65;8.68;;;;;;;;;;4920410;29;20052;-65
2022/04/21 06:22:43;;;;;;;10.43;8.77;;;;;;;;;;4920528;29;20063;-64
2022/04/21 06:25:12;;;;;;;8.70;7.88;;;;;;;;;;4929676;29;20062;-67
2022/04/21 06:27:41;;;;;;;8.02;7.32;;;;;;;;;;4934984;29;20051;-67
2022/04/21 06:30:10;;;;;;;7.95;7.22;;;;;;;;;;4931273;29;20083;-66
2022/04/21 06:32:39;;;;;;;8.93;7.75;;;;;;;;;;4930005;29;20047;-66
2022/04/21 06:35:09;;;;;;;9.60;8.10;;;;;;;;;;4935031;29;20098;-65
2022/04/21 06:37:37;;;;;;;8.20;7.07;;;;;;;;;;4934426;29;20106;-65
2022/04/21 06:40:07;;;;;;;7.82;6.80;;;;;;;;;;4935089;29;20102;-66
2022/04/21 06:42:38;;;;;;;9.68;7.38;;;;;;;;;;4936738;29;20051;-65
2022/04/21 06:48:09;;;;;;;8.05;7.25;;;;;;;;;;4936485;29;20062;-65
2022/04/21 06:50:39;;;;;;;10.43;7.50;;;;;;;;;;4937476;29;20051;-65
2022/04/21 06:53:10;;;;;;;11.70;7.60;;;;;;;;;;4936934;29;20063;-65
2022/04/21 06:55:39;;;;;;;10.55;7.82;;;;;;;;;;4937672;29;20053;-65
2022/04/21 06:58:08;;;;;;;9.20;7.80;;;;;;;;;;4936953;29;20102;-65
2022/04/21 07:00:38;;;;;;;11.45;7.78;;;;;;;;;;4938616;29;20059;-65
2022/04/21 07:03:08;;;;;;;9.38;8.30;;;;;;;;;;4937590;29;20570;-65
2022/04/21 07:05:38;;;;;;;14.48;6.93;;;;;;;;;;4938610;29;20391;-65
2022/04/21 07:08:08;;;;;;;7.70;7.00;;;;;;;;;;4938683;29;20574;-65
2022/04/21 07:10:37;;;;;;;8.45;7.10;;;;;;;;;;4937898;29;20090;-65
2022/04/21 07:13:11;;;;;;;8.25;6.60;;;;;;;;;;4938850;29;20102;-66
2022/04/21 07:15:41;;;;;;;9.93;6.80;;;;;;;;;;4937814;29;20488;-65
2022/04/21 07:18:14;;;;;;;8.07;6.45;;;;;;;;;;4938195;29;20055;-65
2022/04/21 07:20:43;;;;;;;9.98;6.97;;;;;;;;;;4937820;29;20055;-65
2022/04/21 07:23:12;;;;;;;10.75;7.20;;;;;;;;;;4938327;29;20055;-65
2022/04/21 07:25:42;;;;;;;9.20;7.18;;;;;;;;;;4938033;29;20114;-65
2022/04/21 07:28:12;;;;;;;6.95;5.97;;;;;;;;;;4937667;29;20052;-65
2022/04/21 07:30:42;;;;;;;8.73;7.00;;;;;;;;;;4937949;29;20047;-66
2022/04/21 07:33:11;;;;;;;12.25;6.75;;;;;;;;;;4937918;29;20120;-64
2022/04/21 07:35:43;;;;;;;8.45;7.43;;;;;;;;;;4941797;29;20498;-65
2022/04/21 07:38:12;;;;;;;8.40;6.43;;;;;;;;;;4956513;29;20059;-65
2022/04/21 07:40:43;;;;;;;7.75;6.82;;;;;;;;;;4946538;29;20084;-65
2022/04/21 07:43:12;;;;;;;7.38;6.30;;;;;;;;;;4928376;29;20044;-65
2022/04/21 07:45:44;;;;;;;7.15;6.55;;;;;;;;;;4919965;29;20496;-65
2022/04/21 07:48:13;;;;;;;7.43;6.63;;;;;;;;;;4932165;29;20547;-65
2022/04/21 07:50:42;;;;;;;8.27;6.97;;;;;;;;;;4930983;29;20132;-65
2022/04/21 07:53:22;;;;;;;13.55;7.05;;;;;;;;;;4930438;29;20581;-65
2022/04/21 07:55:51;;;;;;;14.40;7.05;;;;;;;;;;4936438;29;20110;-66
2022/04/21 07:58:21;;;;;;;13.98;7.82;;;;;;;;;;4918989;29;20508;-66
2022/04/21 08:00:49;;;;;;;8.20;6.05;;;;;;;;;;4918095;29;20052;-66
2022/04/21 08:03:20;;;;;;;8.25;7.45;;;;;;;;;;4937418;29;20052;-66
2022/04/21 08:05:49;;;;;;;25.80;8.68;;;;;;;;;;4937579;29;20051;-65
2022/04/21 08:08:19;;;;;;;9.10;8.10;;;;;;;;;;4937649;29;20416;-72
2022/04/21 08:10:48;;;;;;;9.32;7.22;;;;;;;;;;4924393;29;20063;-73
2022/04/21 08:13:18;;;;;;;8.45;7.65;;;;;;;;;;4918630;29;20044;-72
2022/04/21 08:15:48;;;;;;;11.55;8.55;;;;;;;;;;4931207;29;20124;-72
2022/04/21 08:18:20;;;;;;;9.20;7.85;;;;;;;;;;4927330;29;20120;-73
2022/04/21 08:20:53;;;;;;;10.38;7.72;;;;;;;;;;4929153;29;20052;-73
2022/04/21 08:23:22;;;;;;;9.05;8.15;;;;;;;;;;4937373;29;20107;-72
2022/04/21 08:34:33;;;;;;;12.20;7.47;;;;;;;;;;4935244;29;20047;-70
2022/04/21 08:37:03;;;;;;;9.63;8.68;;;;;;;;;;4937234;29;20058;-74
2022/04/21 08:39:33;;;;;;;10.25;8.25;;;;;;;;;;4936181;29;20542;-73
2022/04/21 08:42:10;;;;;;;10.10;8.10;;;;;;;;;;4936864;29;20492;-73
2022/04/21 08:44:43;;;;;;;15.60;11.75;;;;;;;;;;4937116;29;20086;-73
2022/04/21 08:47:14;;;;;;;11.98;10.05;;;;;;;;;;4922058;29;20126;-73
2022/04/21 08:49:47;;;;;;;13.90;8.38;;;;;;;;;;4917741;29;20040;-73
2022/04/21 08:52:17;;;;;;;12.00;8.18;;;;;;;;;;4933179;29;20051;-73
2022/04/21 08:54:46;;;;;;;10.75;8.40;;;;;;;;;;4937100;29;20459;-71
2022/04/21 08:57:15;;;;;;;8.75;7.68;;;;;;;;;;4922625;29;20048;-71
2022/04/21 08:59:45;;;;;;;8.93;7.38;;;;;;;;;;4937234;29;20044;-71
2022/04/21 09:02:15;;;;;;;11.88;10.30;;;;;;;;;;4934628;29;20138;-71
2022/04/21 09:04:43;;;;;;;15.85;9.00;;;;;;;;;;4940351;29;20412;-71
2022/04/21 09:07:20;;;;;;;10.35;8.65;;;;;;;;;;4940416;29;20055;-67
2022/04/21 09:10:05;;;;;;;9.65;8.30;;;;;;;;;;4940637;29;20459;-67
2022/04/21 09:12:34;;;;;;;;;;;;;;;;;;4940911;29;20076;-67
2022/04/21 09:15:08;;;;;;;9.45;8.45;;;;;;;;;;4940231;29;19923;-67
2022/04/21 09:17:44;;;;;;;8.80;7.65;;;;;;;;;;4940317;29;20475;-67
2022/04/21 09:20:13;;;;;;;8.15;7.35;;;;;;;;;;4940094;29;20431;-66
2022/04/21 09:22:59;;;;;;;8.70;6.78;;;;;;;;;;4940322;29;20495;-67
2022/04/21 09:25:33;;;;;;;10.93;8.93;;;;;;;;;;4926703;29;20131;-67
2022/04/21 09:28:02;;;;;;;8.70;7.80;;;;;;;;;;4919609;29;20500;-67
2022/04/21 09:30:31;;;;;;;9.27;7.85;;;;;;;;;;4921250;29;20052;-67
2022/04/21 09:33:05;;;;;;;8.90;8.07;;;;;;;;;;4937961;29;20099;-67
2022/04/21 09:35:37;;;;;;;11.18;10.10;;;;;;;;;;4940298;29;20131;-67
2022/04/21 09:38:05;;;;;;;11.32;10.13;;;;;;;;;;4939779;29;20402;-67
2022/04/21 09:40:36;;;;;;;11.55;10.45;;;;;;;;;;4939907;29;20419;-67
2022/04/21 09:43:05;;;;;;;12.98;11.65;;;;;;;;;;4939851;29;20039;-67
2022/04/21 09:48:30;;;;;;;12.73;11.55;;;;;;;;;;4939482;29;20094;-68
2022/04/21 09:51:07;;;;;;;13.45;11.73;;;;;;;;;;4939606;29;20078;-67
2022/04/21 09:53:59;;;;;;;16.05;12.10;;;;;;;;;;4940401;29;20110;-67
2022/04/21 09:56:40;;;;;;;12.75;11.45;;;;;;;;;;4939984;29;20066;-67
2022/04/21 09:59:13;;;;;;;15.23;11.85;;;;;;;;;;4940166;29;20385;-66
2022/04/21 10:01:42;;;;;;;13.95;12.55;;;;;;;;;;4940100;29;20063;-67
2022/04/21 10:04:17;;;;;;;12.93;11.55;;;;;;;;;;4939125;29;20555;-67
2022/04/21 10:06:45;;;;;;;;;;;;;;;;;;4939693;29;20043;-67
2022/04/21 10:09:19;;;;;;;10.30;9.20;;;;;;;;;;4940341;29;19927;-67
2022/04/21 10:11:55;;;;;;;11.70;9.52;;;;;;;;;;4939052;29;20059;-67
2022/04/21 10:14:23;;;;;;;15.10;10.23;;;;;;;;;;4939573;29;20102;-67
2022/04/21 10:16:53;;;;;;;9.57;8.68;;;;;;;;;;4938825;29;20062;-67
2022/04/21 10:19:22;;;;;;;9.70;8.85;;;;;;;;;;4939733;29;20079;-66
2022/04/21 10:21:54;;;;;;;12.27;9.52;;;;;;;;;;4938379;29;20048;-67
2022/04/21 10:24:23;;;;;;;12.65;8.55;;;;;;;;;;4939355;29;20146;-66
2022/04/21 10:26:53;;;;;;;11.18;9.27;;;;;;;;;;4939673;29;20082;-66
2022/04/21 10:29:27;;;;;;;13.52;10.05;;;;;;;;;;4938963;29;20118;-66
2022/04/21 10:32:00;;;;;;;11.65;8.40;;;;;;;;;;4939222;29;20051;-67
2022/04/21 10:34:40;;;;;;;10.55;9.52;;;;;;;;;;4939054;29;20066;-66
2022/04/21 10:37:19;;;;;;;11.98;9.80;;;;;;;;;;4939210;29;20480;-67
2022/04/21 10:40:02;;;;;;;11.10;9.65;;;;;;;;;;4938195;29;20063;-66
2022/04/21 10:42:57;;;;;;;9.00;8.13;;;;;;;;;;4939308;29;20428;-66
2022/04/21 10:45:49;;;;;;;10.50;9.40;;;;;;;;;;4938707;29;20055;-66
2022/04/21 10:48:18;;;;;;;10.40;9.40;;;;;;;;;;4938637;29;20047;-67
2022/04/21 10:50:48;;;;;;;9.25;8.35;;;;;;;;;;4937624;29;20556;-67
2022/04/21 10:57:12;;;;;;;8.88;8.02;;;;;;;;;;4937989;29;20075;-67
2022/04/21 10:59:18;;;;;;;13.55;8.77;;;;;;;;;;4938903;29;20400;-67
2022/04/21 11:01:54;;;;;;;9.65;8.65;;;;;;;;;;4938425;29;20103;-67
2022/04/21 11:04:24;;;;;;;12.88;9.90;;;;;;;;;;4937463;29;20084;-67
2022/04/21 11:07:11;;;;;;;11.63;10.43;;;;;;;;;;4919521;29;20048;-67
2022/04/21 11:09:41;;;;;;;14.65;10.52;;;;;;;;;;4919697;29;20052;-67
2022/04/21 11:12:49;;;;;;;12.82;11.50;;;;;;;;;;4937245;29;20059;-67
2022/04/21 11:15:49;;;;;;;15.07;12.38;;;;;;;;;;4938157;29;20088;-66
2022/04/21 11:18:30;;;;;;;16.80;9.98;;;;;;;;;;4923564;29;20056;-66
2022/04/21 11:21:26;;;;;;;9.80;8.30;;;;;;;;;;4936222;29;20058;-66
2022/04/21 11:24:01;;;;;;;11.82;9.25;;;;;;;;;;4935719;29;20522;-66
2022/04/21 11:27:15;;;;;;;13.55;9.77;;;;;;;;;;4933250;29;20052;-65
2022/04/21 11:29:44;;;;;;;12.15;10.30;;;;;;;;;;4936500;29;20044;-66
2022/04/21 11:32:21;;;;;;;11.57;10.40;;;;;;;;;;4935744;29;20451;-66
2022/04/21 11:35:25;;;;;;;14.77;10.15;;;;;;;;;;4928132;29;20051;-66
2022/04/21 11:38:00;;;;;;;11.65;10.07;;;;;;;;;;4935461;29;20056;-66
2022/04/21 11:40:36;;;;;;;12.18;10.13;;;;;;;;;;4936487;29;20047;-66
2022/04/21 11:43:11;;;;;;;23.67;10.68;;;;;;;;;;4937577;29;20132;-66
2022/04/21 11:45:41;;;;;;;;;;;;;;;;;;4938150;29;20090;-66
2022/04/21 11:48:15;;;;;;;11.43;10.27;;;;;;;;;;4938677;28;19922;-66
2022/04/21 11:50:46;;;;;;;14.45;11.32;;;;;;;;;;4937453;29;20056;-66
2022/04/21 11:53:20;;;;;;;22.75;13.02;;;;;;;;;;4938025;29;20051;-66
2022/04/21 11:56:08;;;;;;;12.77;11.25;;;;;;;;;;4936911;29;20135;-66
2022/04/21 11:58:38;;;;;;;16.70;12.50;;;;;;;;;;4938166;29;20143;-66
2022/04/21 12:07:16;;;;;;;14.77;12.23;;;;;;;;;;4937255;29;20078;-66
2022/04/21 12:09:50;;;;;;;12.98;11.68;;;;;;;;;;4937415;29;20047;-65
2022/04/21 12:12:21;;;;;;;15.85;11.90;;;;;;;;;;4931358;29;20048;-65
2022/04/21 12:14:50;;;;;;;12.77;10.60;;;;;;;;;;4932184;29;20055;-65
2022/04/21 12:17:21;;;;;;;13.50;11.95;;;;;;;;;;4916757;29;20483;-65
2022/04/21 12:19:50;;;;;;;12.18;10.93;;;;;;;;;;4916701;29;20405;-65
2022/04/21 12:22:20;;;;;;;11.95;10.73;;;;;;;;;;4917399;29;20083;-65
2022/04/21 12:24:51;;;;;;;12.30;10.98;;;;;;;;;;4917361;29;20040;-65
2022/04/21 12:27:35;;;;;;;15.70;9.88;;;;;;;;;;4934099;29;20527;-65
2022/04/21 12:30:13;;;;;;;12.25;8.70;;;;;;;;;;4941011;29;20500;-65
2022/04/21 12:32:49;;;;;;;14.68;9.57;;;;;;;;;;4941166;29;20404;-65
2022/04/21 12:35:18;;;;;;;13.02;9.88;;;;;;;;;;4940569;29;20051;-65
2022/04/21 12:40:44;;;;;;;11.38;10.27;;;;;;;;;;4925966;29;20060;-65
2022/04/21 12:43:13;;;;;;;11.73;10.57;;;;;;;;;;4938898;29;20122;-65
2022/04/21 12:45:43;;;;;;;13.63;11.70;;;;;;;;;;4938526;29;20055;-65
2022/04/21 12:48:34;;;;;;;13.70;11.93;;;;;;;;;;4932732;29;20051;-65
2022/04/21 12:51:07;;;;;;;12.98;11.80;;;;;;;;;;4940093;29;20059;-65
2022/04/21 12:53:36;;;;;;;17.30;11.73;;;;;;;;;;4940131;29;20059;-66
2022/04/21 12:56:12;;;;;;;11.45;10.23;;;;;;;;;;4939664;29;20055;-64
2022/04/21 12:58:42;;;;;;;14.10;12.80;;;;;;;;;;4939942;29;20047;-65
2022/04/21 13:01:12;;;;;;;13.23;12.00;;;;;;;;;;4937766;29;20115;-65
2022/04/21 13:03:46;;;;;;;13.52;12.18;;;;;;;;;;4939491;29;20134;-65
2022/04/21 13:06:47;;;;;;;13.18;11.32;;;;;;;;;;4940017;29;20506;-65
2022/04/21 13:09:18;;;;;;;11.52;10.32;;;;;;;;;;4935281;29;20044;-65
2022/04/21 13:11:47;;;;;;;11.02;9.93;;;;;;;;;;4921515;29;20542;-65
2022/04/21 13:14:18;;;;;;;12.82;10.40;;;;;;;;;;4921641;29;20050;-65
2022/04/21 13:16:46;;;;;;;11.13;10.13;;;;;;;;;;4921215;29;20060;-65
2022/04/21 13:19:17;;;;;;;11.75;10.50;;;;;;;;;;4939496;29;20487;-65
2022/04/21 13:22:05;;;;;;;11.00;10.00;;;;;;;;;;4940723;29;20051;-64
2022/04/21 13:24:34;;;;;;;11.40;10.40;;;;;;;;;;4940264;29;20047;-65
2022/04/21 13:27:05;;;;;;;11.65;10.55;;;;;;;;;;4940243;29;20264;-65
2022/04/21 13:29:33;;;;;;;12.38;9.98;;;;;;;;;;4940203;29;20048;-65
2022/04/21 13:34:52;;;;;;;11.93;10.82;;;;;;;;;;4940159;29;20451;-65
2022/04/21 13:37:21;;;;;;;12.68;11.48;;;;;;;;;;4939852;29;20058;-65
2022/04/21 13:39:50;;;;;;;16.35;11.75;;;;;;;;;;4939095;29;20060;-65
2022/04/21 13:42:20;;;;;;;12.30;11.02;;;;;;;;;;4939405;29;20059;-65
2022/04/21 13:44:51;;;;;;;17.05;11.90;;;;;;;;;;4939328;29;20111;-64
2022/04/21 13:47:40;;;;;;;11.73;9.60;;;;;;;;;;4939439;29;20043;-65
2022/04/21 13:50:09;;;;;;;13.27;10.20;;;;;;;;;;4921654;29;20067;-65
2022/04/21 13:52:38;;;;;;;13.43;9.65;;;;;;;;;;4920449;29;20111;-64
2022/04/21 13:55:09;;;;;;;11.20;9.88;;;;;;;;;;4920721;29;20051;-64
2022/04/21 13:57:37;;;;;;;10.75;9.65;;;;;;;;;;4920325;29;20072;-64
2022/04/21 14:00:08;;;;;;;10.73;9.63;;;;;;;;;;4920150;29;20067;-64
2022/04/21 14:02:36;;;;;;;10.63;9.52;;;;;;;;;;4933416;29;20134;-65
2022/04/21 14:05:06;;;;;;;11.00;9.95;;;;;;;;;;4936659;29;20399;-65
2022/04/21 14:07:35;;;;;;;8.98;7.65;;;;;;;;;;4920509;29;20460;-65
2022/04/21 14:10:03;;;;;;;8.88;7.97;;;;;;;;;;4923663;29;20040;-65
2022/04/21 14:12:32;;;;;;;8.88;8.07;;;;;;;;;;4931677;29;20056;-65
2022/04/21 14:15:02;;;;;;;7.38;6.63;;;;;;;;;;4920112;29;20052;-65
2022/04/21 14:17:30;;;;;;;7.50;6.78;;;;;;;;;;4920570;29;20056;-65
2022/04/21 14:20:00;;;;;;;7.43;5.72;;;;;;;;;;4920427;29;20056;-65
2022/04/21 14:22:28;;;;;;;7.00;6.28;;;;;;;;;;4918948;29;20056;-65
2022/04/21 14:24:57;;;;;;;6.47;5.70;;;;;;;;;;4920650;29;20060;-66
2022/04/21 14:27:26;;;;;;;6.35;5.72;;;;;;;;;;4920057;29;20535;-65
2022/04/21 14:29:55;;;;;;;6.30;5.68;;;;;;;;;;4927872;29;20051;-64
2022/04/21 14:32:23;;;;;;;6.00;5.45;;;;;;;;;;4938635;29;20040;-64
2022/04/21 14:34:53;;;;;;;6.45;5.85;;;;;;;;;;4938956;29;20056;-65
2022/04/21 14:45:43;;;;;;;5.25;4.75;;;;;;;;;;4939456;29;20063;-66
2022/04/21 14:48:11;;;;;;;4.50;4.10;;;;;;;;;;4938986;29;20051;-66
2022/04/21 14:50:39;;;;;;;4.15;3.67;;;;;;;;;;4938200;29;20048;-65
2022/04/21 14:53:09;;;;;;;3.58;3.28;;;;;;;;;;4938352;29;20134;-66
2022/04/21 14:55:37;;;;;;;5.35;3.55;;;;;;;;;;4938962;29;20040;-66
2022/04/21 14:58:06;;;;;;;5.85;4.05;;;;;;;;;;4939068;29;20055;-65
2022/04/21 15:00:34;;;;;;;4.57;4.15;;;;;;;;;;4937808;29;20052;-66
2022/04/21 15:03:02;;;;;;;3.63;3.33;;;;;;;;;;4938602;29;20058;-65
2022/04/21 15:05:31;;;;;;;4.05;3.65;;;;;;;;;;4938581;29;20039;-65
2022/04/21 15:08:05;;;;;;;4.03;3.67;;;;;;;;;;4939302;29;20510;-65
2022/04/21 15:10:42;;;;;;;4.22;3.85;;;;;;;;;;4938225;29;20040;-65
2022/04/21 15:13:11;;;;;;;4.10;3.70;;;;;;;;;;4938610;29;20408;-65
2022/04/21 15:15:39;;;;;;;3.60;3.30;;;;;;;;;;4928595;29;20056;-66
2022/04/21 15:18:07;;;;;;;4.03;3.63;;;;;;;;;;4919302;29;20076;-65
2022/04/21 15:20:35;;;;;;;3.70;3.40;;;;;;;;;;4918829;29;20756;-66
2022/04/21 15:23:11;;;;;;;3.53;3.22;;;;;;;;;;4920298;29;20052;-65
2022/04/21 15:25:40;;;;;;;5.25;4.13;;;;;;;;;;4937972;29;20503;-65
2022/04/21 15:28:10;;;;;;;3.92;3.63;;;;;;;;;;4938246;29;20090;-65
2022/04/21 15:30:40;;;;;;;3.78;3.38;;;;;;;;;;4937432;29;20051;-65
2022/04/21 15:33:10;;;;;;;3.90;3.50;;;;;;;;;;4936929;29;20139;-65
2022/04/21 15:35:41;;;;;;;4.90;4.07;;;;;;;;;;4932701;29;20044;-65
2022/04/21 15:38:13;;;;;;;4.97;3.72;;;;;;;;;;4918800;29;20495;-65
2022/04/21 15:40:41;;;;;;;3.50;3.20;;;;;;;;;;4937069;29;20138;-66
2022/04/21 15:43:09;;;;;;;3.95;3.55;;;;;;;;;;4937493;29;20044;-65
2022/04/21 15:45:37;;;;;;;3.80;3.50;;;;;;;;;;4937781;29;20051;-65
2022/04/21 15:48:06;;;;;;;3.72;3.42;;;;;;;;;;4937722;29;20060;-65
2022/04/21 15:50:38;;;;;;;4.60;3.72;;;;;;;;;;4937373;29;20055;-66
2022/04/21 15:58:48;;;;;;;11.25;4.57;;;;;;;;;;4935211;29;20083;-66
2022/04/21 16:01:17;;;;;;;4.93;4.47;;;;;;;;;;4921512;29;20054;-65
2022/04/21 16:03:47;;;;;;;7.70;4.50;;;;;;;;;;4937702;29;20059;-65
2022/04/21 16:06:19;;;;;;;5.25;4.75;;;;;;;;;;4936330;29;20142;-66
2022/04/21 16:08:55;;;;;;;4.97;4.25;;;;;;;;;;4937733;29;20110;-65